createdAt,value
2022-12-18T00:00:10.180Z,363.04762
2022-12-18T00:05:11.904Z,360.21622
2022-12-18T00:10:15.500Z,346.61438
2022-12-18T00:15:17.263Z,331.42138
2022-12-18T00:20:18.867Z,336.35669
2022-12-18T00:25:20.477Z,312.86228
2022-12-18T00:30:22.170Z,296
2022-12-18T00:35:24.337Z,319.60976
2022-12-18T00:40:25.907Z,326.6087
2022-12-18T00:45:27.580Z,336.35669
2022-12-18T00:50:29.435Z,344
2022-12-18T00:55:31.032Z,365.91781
2022-12-18T01:00:32.697Z,365.91781
2022-12-18T01:05:34.515Z,390.37681
2022-12-18T01:10:36.436Z,396.94118
2022-12-18T01:15:37.987Z,407.15789
2022-12-18T01:20:39.606Z,425.25
2022-12-18T01:25:41.354Z,410.66667
2022-12-18T01:30:42.963Z,417.84615
2022-12-18T01:35:45.105Z,403.70149
2022-12-18T01:40:46.807Z,429.03937
2022-12-18T01:45:48.412Z,429.03937
2022-12-18T01:50:50.070Z,429.03937
2022-12-18T01:55:51.604Z,429.03937
2022-12-18T02:00:53.204Z,390.37681
2022-12-18T02:05:55.152Z,425.25
2022-12-18T02:10:57.046Z,429.03937
2022-12-18T02:15:58.967Z,403.70149
2022-12-18T02:21:00.773Z,380.87943
2022-12-18T02:26:02.306Z,344
2022-12-18T02:31:04.161Z,329
2022-12-18T02:36:06.007Z,319.60976
2022-12-18T02:41:07.575Z,315.08434
2022-12-18T02:46:09.250Z,310.66667
2022-12-18T02:51:10.801Z,306.35294
2022-12-18T02:56:12.520Z,326.6087
2022-12-18T03:01:14.202Z,357.42282
2022-12-18T03:06:16.194Z,336.35669
2022-12-18T03:11:17.749Z,354.66667
2022-12-18T03:16:19.341Z,349.26316
2022-12-18T03:21:20.892Z,351.94702
2022-12-18T03:26:22.524Z,371.77778
2022-12-18T03:31:24.677Z,374.76923
2022-12-18T03:36:26.894Z,374.76923
2022-12-18T03:41:28.939Z,380.87943
2022-12-18T03:46:30.979Z,384
2022-12-18T03:51:32.983Z,393.63504
2022-12-18T03:56:34.862Z,393.63504
2022-12-18T04:01:37.176Z,400.2963
2022-12-18T04:06:39.524Z,407.15789
2022-12-18T04:11:41.564Z,407.15789
2022-12-18T04:16:43.412Z,403.70149
2022-12-18T04:21:45.553Z,400.2963
2022-12-18T04:26:47.324Z,403.70149
2022-12-18T04:31:49.102Z,374.76923
2022-12-18T04:36:51.298Z,346.61438
2022-12-18T04:41:53.092Z,341.41935
2022-12-18T04:46:54.870Z,384
2022-12-18T04:51:57.620Z,429.03937
2022-12-18T04:56:59.641Z,429.03937
2022-12-18T05:02:01.441Z,475.03448
2022-12-18T05:07:03.430Z,498.95495
2022-12-18T05:12:05.291Z,489.13274
2022-12-18T05:17:06.841Z,484.35088
2022-12-18T05:22:08.727Z,504
2022-12-18T05:27:10.313Z,519.70093
2022-12-18T05:32:11.836Z,530.66667
2022-12-18T05:37:13.726Z,530.66667
2022-12-18T05:42:15.422Z,560
2022-12-18T05:47:17.105Z,525.13208
2022-12-18T05:52:19.029Z,579.05155
2022-12-18T05:57:21.065Z,592.42105
2022-12-18T06:02:23.429Z,525.13208
2022-12-18T06:07:25.637Z,547.92157
2022-12-18T06:12:27.626Z,519.70093
2022-12-18T06:17:29.632Z,547.92157
2022-12-18T06:22:31.560Z,479.65217
2022-12-18T06:27:33.462Z,498.95495
2022-12-18T06:32:35.367Z,536.30769
2022-12-18T06:37:37.475Z,519.70093
2022-12-18T06:42:39.289Z,509.13761
2022-12-18T06:47:41.248Z,470.49573
2022-12-18T06:52:43.124Z,519.70093
2022-12-18T06:57:45.014Z,504
2022-12-18T07:02:47.047Z,453.09091
2022-12-18T07:07:49.201Z,525.13208
2022-12-18T07:12:51.033Z,470.49573
2022-12-18T07:17:52.907Z,519.70093
2022-12-18T07:22:56.345Z,514.37037
2022-12-18T07:27:58.594Z,572.57143
2022-12-18T07:33:00.367Z,585.66667
2022-12-18T07:38:02.119Z,457.33333
2022-12-18T07:43:03.845Z,448.91803
2022-12-18T07:48:05.455Z,444.81301
2022-12-18T07:53:07.275Z,530.66667
2022-12-18T07:58:09.079Z,498.95495
2022-12-18T08:03:10.680Z,453.09091
2022-12-18T08:08:14.080Z,514.37037
2022-12-18T08:13:15.772Z,566.22222
2022-12-18T08:18:17.521Z,384
2022-12-18T08:23:19.127Z,519.70093
2022-12-18T08:28:20.775Z,553.90099
2022-12-18T08:33:22.610Z,599.31915
2022-12-18T08:38:24.731Z,566.22222
2022-12-18T08:43:26.510Z,572.57143
2022-12-18T08:48:28.349Z,606.36559
2022-12-18T08:53:35.346Z,560
2022-12-18T08:58:37.539Z,660.27907
2022-12-18T09:03:39.761Z,599.31915
2022-12-18T09:08:42.341Z,677.33333
2022-12-18T09:13:44.401Z,592.42105
2022-12-18T09:18:45.889Z,668.70588
2022-12-18T09:23:47.367Z,566.22222
2022-12-18T09:28:49.206Z,271.65957
2022-12-18T09:33:50.700Z,180.92308
2022-12-18T09:38:52.532Z,349.26316
2022-12-18T09:43:54.040Z,258.28571
2022-12-18T09:48:55.502Z,331.42138
2022-12-18T09:53:57.271Z,331.42138
2022-12-18T09:58:58.797Z,592.42105
2022-12-18T10:04:00.370Z,652.04598
2022-12-18T10:09:02.455Z,733.74359
2022-12-18T10:14:03.950Z,504
2022-12-18T10:19:05.532Z,514.37037
2022-12-18T10:24:07.194Z,572.57143
2022-12-18T10:29:08.685Z,599.31915
2022-12-18T10:34:10.134Z,384
2022-12-18T10:39:12.228Z,377.80282
2022-12-18T10:44:13.943Z,704.49383
2022-12-18T10:49:15.600Z,553.90099
2022-12-18T10:54:17.145Z,636.13483
2022-12-18T10:59:18.735Z,686.16867
2022-12-18T11:04:20.154Z,660.27907
2022-12-18T11:09:22.339Z,592.42105
2022-12-18T11:14:23.980Z,652.04598
2022-12-18T11:19:25.873Z,475.03448
2022-12-18T11:24:27.440Z,453.09091
2022-12-18T11:29:29.240Z,206.12766
2022-12-18T11:34:31.300Z,132.95706
2022-12-18T11:39:33.521Z,157.14879
2022-12-18T11:44:34.963Z,349.26316
2022-12-18T11:49:36.768Z,317.33333
2022-12-18T11:54:38.871Z,479.65217
2022-12-18T11:59:40.531Z,592.42105
2022-12-18T12:04:42.163Z,494
2022-12-18T12:09:44.087Z,536.30769
2022-12-18T12:14:45.777Z,530.66667
2022-12-18T12:19:47.594Z,695.21951
2022-12-18T12:24:49.232Z,457.33333
2022-12-18T12:29:51.010Z,553.90099
2022-12-18T12:34:57.868Z,686.16867
2022-12-18T12:40:15.280Z,636.13483
2022-12-18T12:45:29.158Z,572.57143
2022-12-18T12:50:30.924Z,620.92308
2022-12-18T12:55:33.460Z,660.27907
2022-12-18T13:00:35.357Z,566.22222
2022-12-18T13:05:37.323Z,776.43243
2022-12-18T13:10:39.212Z,644
2022-12-18T13:15:41.639Z,668.70588
2022-12-18T13:20:45.625Z,585.66667
2022-12-18T13:25:50.759Z,636.13483
2022-12-18T13:30:53.767Z,613.56522
2022-12-18T13:35:58.371Z,613.56522
2022-12-18T13:41:00.828Z,599.31915
2022-12-18T13:46:02.643Z,579.05155
2022-12-18T13:51:04.551Z,542.05825
2022-12-18T13:56:06.339Z,542.05825
2022-12-18T14:01:09.233Z,560
2022-12-18T14:06:11.114Z,628.44444
2022-12-18T14:11:12.862Z,668.70588
2022-12-18T14:16:15.797Z,677.33333
2022-12-18T14:21:17.621Z,579.05155
2022-12-18T14:26:19.692Z,585.66667
2022-12-18T14:31:21.757Z,592.42105
2022-12-18T14:36:23.488Z,547.92157
2022-12-18T14:41:25.449Z,553.90099
2022-12-18T14:46:27.023Z,547.92157
2022-12-18T14:51:29.202Z,599.31915
2022-12-18T14:56:31.148Z,553.90099
2022-12-18T15:01:33.208Z,547.92157
2022-12-18T15:06:35.315Z,514.37037
2022-12-18T15:11:37.327Z,553.90099
2022-12-18T15:16:43.385Z,530.66667
2022-12-18T15:21:48.180Z,560
2022-12-18T15:26:49.980Z,566.22222
2022-12-18T15:31:51.977Z,572.57143
2022-12-18T15:36:53.912Z,547.92157
2022-12-18T15:41:56.075Z,525.13208
2022-12-18T15:46:57.800Z,536.30769
2022-12-18T15:51:59.720Z,579.05155
2022-12-18T15:57:01.407Z,542.05825
2022-12-18T16:02:03.328Z,530.66667
2022-12-18T16:07:14.854Z,560
2022-12-18T16:12:17.051Z,514.37037
2022-12-18T16:17:18.496Z,536.30769
2022-12-18T16:22:20.292Z,525.13208
2022-12-18T16:27:22.165Z,514.37037
2022-12-18T16:32:23.723Z,470.49573
2022-12-18T16:37:26.849Z,525.13208
2022-12-18T16:42:29.267Z,509.13761
2022-12-18T16:47:30.951Z,542.05825
2022-12-18T16:52:32.762Z,542.05825
2022-12-18T16:57:34.711Z,484.35088
2022-12-18T17:02:36.433Z,509.13761
2022-12-18T17:07:38.206Z,498.95495
2022-12-18T17:12:40.411Z,504
2022-12-18T17:17:42.184Z,504
2022-12-18T17:22:43.986Z,489.13274
2022-12-18T17:27:46.130Z,470.49573
2022-12-18T17:32:47.910Z,475.03448
2022-12-18T17:37:49.539Z,457.33333
2022-12-18T17:42:51.518Z,457.33333
2022-12-18T17:47:59.644Z,417.84615
2022-12-18T17:53:01.372Z,417.84615
2022-12-18T17:58:02.935Z,453.09091
2022-12-18T18:03:04.652Z,440.77419
2022-12-18T18:08:06.465Z,479.65217
2022-12-18T18:13:08.352Z,453.09091
2022-12-18T18:18:09.849Z,475.03448
2022-12-18T18:23:13.008Z,466.0339
2022-12-18T18:28:14.787Z,440.77419
2022-12-18T18:33:16.621Z,453.09091
2022-12-18T18:38:18.105Z,457.33333
2022-12-18T18:43:20.559Z,432.88889
2022-12-18T18:48:22.501Z,414.22901
2022-12-18T18:53:24.889Z,421.51938
2022-12-18T18:58:26.830Z,390.37681
2022-12-18T19:03:28.713Z,380.87943
2022-12-18T19:08:30.210Z,363.04762
2022-12-18T19:13:32.308Z,354.66667
2022-12-18T19:18:34.233Z,341.41935
2022-12-18T19:23:35.792Z,308.49704
2022-12-18T19:28:37.610Z,349.26316
2022-12-18T19:33:43.780Z,390.37681
2022-12-18T19:38:45.823Z,384
2022-12-18T19:43:47.959Z,387.16547
2022-12-18T19:48:50.066Z,390.37681
2022-12-18T19:53:55.118Z,377.80282
2022-12-18T19:59:00.149Z,365.91781
2022-12-18T20:04:02.346Z,360.21622
2022-12-18T20:09:05.113Z,377.80282
2022-12-18T20:14:07.155Z,380.87943
2022-12-18T20:19:08.734Z,374.76923
2022-12-18T20:24:10.592Z,371.77778
2022-12-18T20:29:12.216Z,371.77778
2022-12-18T20:34:13.717Z,368.82759
2022-12-18T20:39:15.620Z,377.80282
2022-12-18T20:44:22.283Z,371.77778
2022-12-18T20:49:24.948Z,360.21622
2022-12-18T20:54:26.670Z,368.82759
2022-12-18T20:59:28.424Z,380.87943
2022-12-18T21:09:40.402Z,400.2963
2022-12-18T21:14:42.231Z,384
2022-12-18T21:19:43.688Z,387.16547
2022-12-18T21:24:45.651Z,390.37681
2022-12-18T21:29:47.649Z,396.94118
2022-12-18T21:34:49.560Z,403.70149
2022-12-18T21:39:51.259Z,400.2963
2022-12-18T21:44:53.322Z,421.51938
2022-12-18T21:49:55.063Z,414.22901
2022-12-18T21:54:56.801Z,429.03937
2022-12-18T21:59:58.556Z,432.88889
2022-12-18T22:05:00.260Z,432.88889
2022-12-18T22:10:02.404Z,448.91803
2022-12-18T22:15:04.663Z,444.81301
2022-12-18T22:20:06.185Z,466.0339
2022-12-18T22:25:07.631Z,470.49573
2022-12-18T22:30:09.412Z,461.64706
2022-12-18T22:35:15.853Z,489.13274
2022-12-18T22:40:25.383Z,484.35088
2022-12-18T22:45:27.988Z,489.13274
2022-12-18T22:50:29.629Z,489.13274
2022-12-18T22:55:31.429Z,494
2022-12-18T23:00:33.352Z,484.35088
2022-12-18T23:05:35.074Z,494
2022-12-18T23:10:36.724Z,484.35088
2022-12-18T23:15:38.949Z,489.13274
2022-12-18T23:20:41.014Z,484.35088
2022-12-18T23:25:43.349Z,466.0339
2022-12-18T23:30:45.076Z,475.03448
2022-12-18T23:35:46.687Z,470.49573
2022-12-18T23:40:48.169Z,470.49573
2022-12-18T23:45:55.473Z,466.0339
2022-12-18T23:50:57.587Z,475.03448
2022-12-18T23:55:59.408Z,466.0339
